NCAR-RAP Real-Time Weather Data

Output produced by METARs form (08 May 2021  01:32 UTC)
found at http://weather.rap.ucar.edu/surface/
 
KMVL 080054Z AUTO 35003KT 10SM OVC085 12/M01 A2988 RMK AO2 SLP123 T01221006
KMVL 072354Z AUTO 03005KT 10SM OVC085 13/M02 A2988 RMK AO2 SLP122 T01331017 10161 20133 53001
KMVL 072254Z AUTO 03004KT 10SM OVC090 14/M02 A2988 RMK AO2 SLP123 T01391017
KMVL 072154Z AUTO 03003KT 10SM OVC100 16/M02 A2987 RMK AO2 SLP122 T01561022
KMVL 072054Z AUTO VRB04KT 10SM BKN090 OVC100 16/M02 A2988 RMK AO2 SLP122 T01611022 56015
KMVL 071954Z AUTO 23004KT 10SM OVC090 15/M03 A2989 RMK AO2 SLP126 T01501033
KMVL 071854Z AUTO 16004KT 10SM SCT085 BKN100 16/M03 A2990 RMK AO2 SLP129 T01561028
KMVL 071754Z AUTO 05003KT FEW075 BKN100 15/M04 A2992 RMK AO2 SLP137 T01501039 10156 20028 56019 $
KMVL 071654Z AUTO 00000KT SCT080 BKN100 14/M04 A2994 RMK AO2 SLP143 T01391039 $
KMVL 071554Z AUTO VRB06KT CLR 14/M01 A2996 RMK AO2 SLP150 T01441011
KMVL 071454Z AUTO VRB04KT CLR 12/M03 A2998 RMK AO2 SLP157 T01221028 56010
KMVL 071354Z AUTO VRB03KT CLR 11/00 A2999 RMK AO2 SLP159 T01060000
KMVL 071254Z AUTO 00000KT CLR 07/01 A3000 RMK AO2 SLP164 T00720006
KMVL 071154Z AUTO 00000KT CLR 03/01 A3001 RMK AO2 SLP168 T00280006 10028 21022 51006
KMVL 071054Z AUTO 00000KT CLR M01/M02 A3001 RMK AO2 SLP169 T10061017
KMVL 070954Z AUTO 00000KT CLR M01/M03 A3001 RMK AO2 SLP167 T10111028 $